createdAt,value
2017-12-26T00:00:57.093Z,1015.94
2017-12-26T00:01:57.877Z,1015.97
2017-12-26T00:02:58.780Z,1015.94
2017-12-26T00:03:57.017Z,1015.92
2017-12-26T00:04:56.989Z,1015.89
2017-12-26T00:05:57.099Z,1015.86
2017-12-26T00:06:57.193Z,1015.87
2017-12-26T00:07:57.280Z,1015.86
2017-12-26T00:08:56.991Z,1015.89
2017-12-26T00:09:57.046Z,1015.82
2017-12-26T00:10:57.155Z,1015.79
2017-12-26T00:11:57.096Z,1015.83
2017-12-26T00:12:57.110Z,1015.82
2017-12-26T00:13:57.459Z,1015.75
2017-12-26T00:14:57.022Z,1015.74
2017-12-26T00:15:57.067Z,1015.7
2017-12-26T00:16:57.069Z,1015.66
2017-12-26T00:17:57.825Z,1015.63
2017-12-26T00:18:57.151Z,1015.66
2017-12-26T00:19:57.138Z,1015.58
2017-12-26T00:20:57.034Z,1015.53
2017-12-26T00:21:57.160Z,1015.54
2017-12-26T00:22:57.133Z,1015.5
2017-12-26T00:23:57.016Z,1015.46
2017-12-26T00:24:57.039Z,1015.43
2017-12-26T00:25:57.361Z,1015.45
2017-12-26T00:26:57.105Z,1015.44
2017-12-26T00:27:57.097Z,1015.46
2017-12-26T00:28:57.118Z,1015.42
2017-12-26T00:29:57.087Z,1015.42
2017-12-26T00:30:57.094Z,1015.39
2017-12-26T00:31:57.078Z,1015.42
2017-12-26T00:32:57.094Z,1015.38
2017-12-26T00:33:57.111Z,1015.41
2017-12-26T00:34:56.966Z,1015.35
2017-12-26T00:35:57.027Z,1015.35
2017-12-26T00:36:57.123Z,1015.33
2017-12-26T00:37:57.048Z,1015.35
2017-12-26T00:38:57.170Z,1015.29
2017-12-26T00:39:57.097Z,1015.32
2017-12-26T00:40:57.038Z,1015.31
2017-12-26T00:41:57.271Z,1015.27
2017-12-26T00:42:57.201Z,1015.23
2017-12-26T00:43:57.026Z,1015.2
2017-12-26T00:44:57.054Z,1015.15
2017-12-26T00:45:57.109Z,1015.15
2017-12-26T00:46:57.102Z,1015.13
2017-12-26T00:47:57.120Z,1015.09
2017-12-26T00:48:57.131Z,1015.04
2017-12-26T00:49:57.141Z,1015
2017-12-26T00:50:57.101Z,1015
2017-12-26T00:51:57.152Z,1014.97
2017-12-26T00:52:57.099Z,1014.99
2017-12-26T00:53:57.150Z,1014.94
2017-12-26T00:54:57.077Z,1014.95
2017-12-26T00:55:57.096Z,1014.94
2017-12-26T00:56:57.160Z,1014.92
2017-12-26T00:57:57.022Z,1014.91
2017-12-26T00:58:57.359Z,1014.9
2017-12-26T00:59:57.008Z,1014.92
2017-12-26T01:00:57.054Z,1014.88
2017-12-26T01:01:57.148Z,1014.85
2017-12-26T01:02:57.121Z,1014.87
2017-12-26T01:03:57.101Z,1014.83
2017-12-26T01:04:57.075Z,1014.82
2017-12-26T01:05:57.059Z,1014.78
2017-12-26T01:06:57.022Z,1014.79
2017-12-26T01:07:57.050Z,1014.75
2017-12-26T01:08:57.042Z,1014.78
2017-12-26T01:09:57.319Z,1014.83
2017-12-26T01:10:57.264Z,1014.76
2017-12-26T01:11:57.124Z,1014.76
2017-12-26T01:12:57.136Z,1014.71
2017-12-26T01:13:57.053Z,1014.73
2017-12-26T01:14:57.249Z,1014.71
2017-12-26T01:15:57.317Z,1014.77
2017-12-26T01:16:57.213Z,1014.75
2017-12-26T01:17:57.037Z,1014.76
2017-12-26T01:18:57.138Z,1014.76
2017-12-26T01:19:57.105Z,1014.73
2017-12-26T01:20:57.062Z,1014.7
2017-12-26T01:21:57.072Z,1014.71
2017-12-26T01:22:57.163Z,1014.72
2017-12-26T01:23:57.183Z,1014.7
2017-12-26T01:24:57.046Z,1014.67
2017-12-26T01:25:57.104Z,1014.68
2017-12-26T01:26:57.072Z,1014.7
2017-12-26T01:27:57.185Z,1014.74
2017-12-26T01:28:57.105Z,1014.69
2017-12-26T01:29:57.159Z,1014.7
2017-12-26T01:30:57.107Z,1014.7
2017-12-26T01:31:57.111Z,1014.72
2017-12-26T01:32:57.047Z,1014.72
2017-12-26T01:33:57.122Z,1014.67
2017-12-26T01:34:57.362Z,1014.68
2017-12-26T01:35:57.153Z,1014.6
2017-12-26T01:36:57.094Z,1014.53
2017-12-26T01:37:57.035Z,1014.62
2017-12-26T01:38:57.164Z,1014.61
2017-12-26T01:39:57.112Z,1014.59
2017-12-26T01:40:57.178Z,1014.62
2017-12-26T01:41:57.113Z,1014.56
2017-12-26T01:42:57.083Z,1014.55
2017-12-26T01:43:57.287Z,1014.57
2017-12-26T01:44:57.179Z,1014.56
2017-12-26T01:45:57.139Z,1014.55
2017-12-26T01:46:57.109Z,1014.52
2017-12-26T01:47:57.220Z,1014.54
2017-12-26T01:48:57.086Z,1014.52
2017-12-26T01:49:57.182Z,1014.49
2017-12-26T01:50:57.063Z,1014.45
2017-12-26T01:51:57.135Z,1014.42
2017-12-26T01:52:57.536Z,1014.42
2017-12-26T01:53:57.186Z,1014.42
2017-12-26T01:54:57.144Z,1014.4
2017-12-26T01:55:57.086Z,1014.5
2017-12-26T01:56:57.091Z,1014.37
2017-12-26T01:57:57.143Z,1014.32
2017-12-26T01:58:57.125Z,1014.31
2017-12-26T01:59:57.179Z,1014.29
2017-12-26T02:00:57.196Z,1014.29
2017-12-26T02:01:57.096Z,1014.28
2017-12-26T02:02:57.107Z,1014.22
2017-12-26T02:03:57.217Z,1014.27
2017-12-26T02:04:57.509Z,1014.24
2017-12-26T02:05:57.141Z,1014.23
2017-12-26T02:06:57.085Z,1014.21
2017-12-26T02:07:57.079Z,1014.2
2017-12-26T02:08:57.112Z,1014.11
2017-12-26T02:09:57.131Z,1014.14
2017-12-26T02:10:57.398Z,1014.12
2017-12-26T02:11:57.169Z,1014.14
2017-12-26T02:12:57.140Z,1014.1
2017-12-26T02:13:57.071Z,1014.05
2017-12-26T02:14:57.182Z,1014.03
2017-12-26T02:15:57.189Z,1013.99
2017-12-26T02:16:57.206Z,1013.96
2017-12-26T02:17:57.095Z,1013.96
2017-12-26T02:18:57.034Z,1013.94
2017-12-26T02:19:57.202Z,1013.94
2017-12-26T02:20:57.239Z,1013.95
2017-12-26T02:21:57.224Z,1013.94
2017-12-26T02:22:57.361Z,1013.89
2017-12-26T02:23:57.220Z,1013.9
2017-12-26T02:24:57.130Z,1013.85
2017-12-26T02:25:57.098Z,1013.85
2017-12-26T02:26:57.169Z,1013.83
2017-12-26T02:27:57.227Z,1013.76
2017-12-26T02:28:57.466Z,1013.74
2017-12-26T02:29:57.203Z,1013.74
2017-12-26T02:30:57.395Z,1013.74
2017-12-26T02:31:57.178Z,1013.76
2017-12-26T02:32:57.080Z,1013.72
2017-12-26T02:33:57.300Z,1013.75
2017-12-26T02:34:57.263Z,1013.73
2017-12-26T02:35:57.195Z,1013.72
2017-12-26T02:36:57.167Z,1013.71
2017-12-26T02:37:57.141Z,1013.78
2017-12-26T02:38:57.115Z,1013.78
2017-12-26T02:39:57.127Z,1013.74
2017-12-26T02:40:57.281Z,1013.74
2017-12-26T02:41:57.212Z,1013.7
2017-12-26T02:42:57.167Z,1013.66
2017-12-26T02:43:57.209Z,1013.68
2017-12-26T02:44:57.208Z,1013.67
2017-12-26T02:45:57.332Z,1013.58
2017-12-26T02:46:57.396Z,1013.56
2017-12-26T02:47:57.224Z,1013.5
2017-12-26T02:48:57.216Z,1013.56
2017-12-26T02:49:57.170Z,1013.51
2017-12-26T02:50:57.293Z,1013.45
2017-12-26T02:51:57.219Z,1013.49
2017-12-26T02:52:57.208Z,1013.45
2017-12-26T02:53:57.239Z,1013.45
2017-12-26T02:54:57.166Z,1013.42
2017-12-26T02:55:57.286Z,1013.42
2017-12-26T02:56:57.203Z,1013.41
2017-12-26T02:57:57.183Z,1013.37
2017-12-26T02:58:57.188Z,1013.41
2017-12-26T02:59:57.195Z,1013.38
2017-12-26T03:00:57.198Z,1013.39
2017-12-26T03:01:57.168Z,1013.34
2017-12-26T03:02:57.277Z,1013.35
2017-12-26T03:03:57.170Z,1013.35
2017-12-26T03:04:57.229Z,1013.29
2017-12-26T03:05:57.266Z,1013.28
2017-12-26T03:06:57.174Z,1013.31
2017-12-26T03:07:57.247Z,1013.25
2017-12-26T03:08:57.127Z,1013.26
2017-12-26T03:09:57.191Z,1013.24
2017-12-26T03:10:57.347Z,1013.22
2017-12-26T03:11:57.175Z,1013.22
2017-12-26T03:12:57.206Z,1013.19
2017-12-26T03:13:57.258Z,1013.15
2017-12-26T03:14:57.181Z,1013.15
2017-12-26T03:15:57.300Z,1013.13
2017-12-26T03:16:57.230Z,1013.12
2017-12-26T03:17:57.204Z,1013.02
2017-12-26T03:18:57.183Z,1012.96
2017-12-26T03:19:57.229Z,1012.96
2017-12-26T03:20:57.297Z,1012.96
2017-12-26T03:21:57.284Z,1012.91
2017-12-26T03:22:57.161Z,1012.92
2017-12-26T03:23:57.188Z,1012.85
2017-12-26T03:24:57.224Z,1012.84
2017-12-26T03:25:57.212Z,1012.79
2017-12-26T03:28:57.454Z,1012.7
2017-12-26T03:29:57.160Z,1012.65
2017-12-26T03:30:57.204Z,1012.63
2017-12-26T03:31:57.704Z,1012.54
2017-12-26T03:32:57.331Z,1012.56
2017-12-26T03:33:57.234Z,1012.51
2017-12-26T03:34:57.241Z,1012.43
2017-12-26T03:35:57.357Z,1012.39
2017-12-26T03:36:57.294Z,1012.41
2017-12-26T03:37:57.188Z,1012.36
2017-12-26T03:38:57.322Z,1012.35
2017-12-26T03:39:57.280Z,1012.41
2017-12-26T03:40:57.167Z,1012.39
2017-12-26T03:41:57.198Z,1012.39
2017-12-26T03:42:57.164Z,1012.35
2017-12-26T03:43:57.253Z,1012.31
2017-12-26T03:44:57.301Z,1012.26
2017-12-26T03:45:57.334Z,1012.27
2017-12-26T03:46:57.563Z,1012.24
2017-12-26T03:47:57.291Z,1012.23
2017-12-26T03:48:57.267Z,1012.2
2017-12-26T03:49:57.347Z,1012.16
2017-12-26T03:50:57.313Z,1012.22
2017-12-26T03:51:57.303Z,1012.03
2017-12-26T03:52:57.482Z,1012.12
2017-12-26T03:53:57.379Z,1012.03
2017-12-26T03:54:57.331Z,1011.99
2017-12-26T03:55:57.321Z,1011.97
2017-12-26T03:56:57.164Z,1012
2017-12-26T03:57:57.342Z,1011.94
2017-12-26T03:58:57.425Z,1011.93
2017-12-26T03:59:57.302Z,1011.9
2017-12-26T04:00:57.232Z,1011.87
2017-12-26T04:01:57.223Z,1011.84
2017-12-26T04:02:57.308Z,1011.79
2017-12-26T04:03:57.391Z,1011.8
2017-12-26T04:04:57.289Z,1011.85
2017-12-26T04:05:57.280Z,1011.72
2017-12-26T04:06:57.251Z,1011.83
2017-12-26T04:07:57.438Z,1011.72
2017-12-26T04:08:57.243Z,1011.78
2017-12-26T04:09:57.280Z,1011.76
2017-12-26T04:10:57.458Z,1011.74
2017-12-26T04:11:57.316Z,1011.66
2017-12-26T04:12:57.319Z,1011.73
2017-12-26T04:13:57.345Z,1011.7
2017-12-26T04:14:57.365Z,1011.6
2017-12-26T04:15:57.342Z,1011.61
2017-12-26T04:16:57.305Z,1011.64
2017-12-26T04:17:57.274Z,1011.53
2017-12-26T04:18:57.349Z,1011.5
2017-12-26T04:19:57.362Z,1011.51
2017-12-26T04:20:57.260Z,1011.54
2017-12-26T04:21:57.252Z,1011.51
2017-12-26T04:22:57.307Z,1011.53
2017-12-26T04:23:57.386Z,1011.48
2017-12-26T04:24:57.279Z,1011.51
2017-12-26T04:25:57.356Z,1011.41
2017-12-26T04:26:57.370Z,1011.44
2017-12-26T04:27:57.350Z,1011.44
2017-12-26T04:28:57.315Z,1011.4
2017-12-26T04:29:57.349Z,1011.4
2017-12-26T04:30:57.457Z,1011.35
2017-12-26T04:31:57.352Z,1011.42
2017-12-26T04:32:57.356Z,1011.4
2017-12-26T04:33:57.493Z,1011.37
2017-12-26T04:34:57.217Z,1011.38
2017-12-26T04:35:57.326Z,1011.38
2017-12-26T04:36:57.290Z,1011.38
2017-12-26T04:37:57.326Z,1011.33
2017-12-26T04:38:57.405Z,1011.32
2017-12-26T04:39:57.346Z,1011.27
2017-12-26T04:40:57.328Z,1011.29
2017-12-26T04:41:57.385Z,1011.33
2017-12-26T04:42:57.332Z,1011.32
2017-12-26T04:43:57.281Z,1011.31
2017-12-26T04:44:57.362Z,1011.26
2017-12-26T04:45:57.654Z,1011.27
2017-12-26T04:46:57.376Z,1011.29
2017-12-26T04:47:57.369Z,1011.23
2017-12-26T04:48:57.371Z,1011.22
2017-12-26T04:49:57.388Z,1011.22
2017-12-26T04:50:57.386Z,1011.12
2017-12-26T04:51:57.404Z,1011.09
2017-12-26T04:52:57.353Z,1011.05
2017-12-26T04:53:57.312Z,1011.02
2017-12-26T04:54:57.379Z,1011.03
2017-12-26T04:55:57.327Z,1010.97
2017-12-26T04:56:57.448Z,1010.95
2017-12-26T04:57:57.394Z,1010.96
2017-12-26T04:58:57.379Z,1010.96
2017-12-26T04:59:57.415Z,1010.93
2017-12-26T05:00:57.288Z,1010.98
2017-12-26T05:01:57.248Z,1010.94
2017-12-26T05:02:57.330Z,1010.87
2017-12-26T05:03:57.481Z,1010.85
2017-12-26T05:04:57.499Z,1010.88
2017-12-26T05:05:57.362Z,1010.86
2017-12-26T05:06:57.291Z,1010.81
2017-12-26T05:07:57.365Z,1010.81
2017-12-26T05:08:57.324Z,1010.86
2017-12-26T05:09:57.422Z,1010.83
2017-12-26T05:10:57.404Z,1010.84
2017-12-26T05:11:57.526Z,1010.8
2017-12-26T05:12:57.406Z,1010.77
2017-12-26T05:13:57.384Z,1010.76
2017-12-26T05:14:57.281Z,1010.67
2017-12-26T05:15:57.465Z,1010.72
2017-12-26T05:16:57.357Z,1010.67
2017-12-26T05:17:57.402Z,1010.6
2017-12-26T05:18:57.356Z,1010.62
2017-12-26T05:19:57.412Z,1010.62
2017-12-26T05:20:57.358Z,1010.6
2017-12-26T05:21:57.415Z,1010.56
2017-12-26T05:22:57.440Z,1010.58
2017-12-26T05:23:57.323Z,1010.5
2017-12-26T05:24:57.418Z,1010.49
2017-12-26T05:25:57.408Z,1010.47
2017-12-26T05:26:57.305Z,1010.51
2017-12-26T05:27:57.478Z,1010.51
2017-12-26T05:28:57.333Z,1010.39
2017-12-26T05:29:57.299Z,1010.4
2017-12-26T05:30:57.344Z,1010.39
2017-12-26T05:31:57.411Z,1010.37
2017-12-26T05:32:57.364Z,1010.34
2017-12-26T05:33:57.396Z,1010.41
2017-12-26T05:34:57.377Z,1010.36
2017-12-26T05:35:57.328Z,1010.41
2017-12-26T05:36:57.425Z,1010.34
2017-12-26T05:37:57.420Z,1010.29
2017-12-26T05:38:57.327Z,1010.33
2017-12-26T05:39:57.340Z,1010.22
2017-12-26T05:40:57.426Z,1010.33
2017-12-26T05:41:57.408Z,1010.34
2017-12-26T05:42:57.316Z,1010.29
2017-12-26T05:43:57.500Z,1010.25
2017-12-26T05:44:57.385Z,1010.28
2017-12-26T05:45:57.383Z,1010.24
2017-12-26T05:46:57.366Z,1010.24
2017-12-26T05:47:57.369Z,1010.24
2017-12-26T05:48:57.404Z,1010.22
2017-12-26T05:49:57.404Z,1010.22
2017-12-26T05:50:57.529Z,1010.13
2017-12-26T05:51:57.413Z,1010.11
2017-12-26T05:52:57.409Z,1010.08
2017-12-26T05:53:57.428Z,1010.11
2017-12-26T05:54:57.461Z,1010.06
2017-12-26T05:55:57.475Z,1010.13
2017-12-26T05:56:57.385Z,1010.06
2017-12-26T05:57:57.371Z,1010.07
2017-12-26T05:58:57.419Z,1010.04
2017-12-26T05:59:57.370Z,1010.12
2017-12-26T06:00:57.382Z,1010.03
2017-12-26T06:01:57.609Z,1010.04
2017-12-26T06:02:57.389Z,1010
2017-12-26T06:03:57.478Z,1009.96
2017-12-26T06:04:57.359Z,1009.91
2017-12-26T06:05:57.381Z,1009.82
2017-12-26T06:06:57.362Z,1009.97
2017-12-26T06:07:57.397Z,1010.01
2017-12-26T06:08:57.404Z,1009.81
2017-12-26T06:09:57.567Z,1009.92
2017-12-26T06:10:57.452Z,1009.97
2017-12-26T06:11:57.375Z,1009.98
2017-12-26T06:12:57.496Z,1009.86
2017-12-26T06:13:57.419Z,1009.88
2017-12-26T06:14:57.450Z,1009.9
2017-12-26T06:15:57.467Z,1009.87
2017-12-26T06:16:57.462Z,1009.82
2017-12-26T06:17:57.436Z,1009.91
2017-12-26T06:18:57.562Z,1009.88
2017-12-26T06:19:57.483Z,1009.78
2017-12-26T06:20:57.358Z,1009.84
2017-12-26T06:21:57.500Z,1009.8
2017-12-26T06:22:57.514Z,1009.77
2017-12-26T06:23:57.374Z,1009.78
2017-12-26T06:24:57.377Z,1009.7
2017-12-26T06:25:57.487Z,1009.72
2017-12-26T06:26:57.486Z,1009.76
2017-12-26T06:27:57.493Z,1009.81
2017-12-26T06:28:57.339Z,1009.76
2017-12-26T06:29:57.480Z,1009.8
2017-12-26T06:30:57.494Z,1009.76
2017-12-26T06:31:57.559Z,1009.72
2017-12-26T06:32:57.347Z,1009.75
2017-12-26T06:33:57.575Z,1009.75
2017-12-26T06:34:57.435Z,1009.73
2017-12-26T06:35:57.451Z,1009.76
2017-12-26T06:36:57.481Z,1009.77
2017-12-26T06:37:57.490Z,1009.75
2017-12-26T06:38:57.464Z,1009.8
2017-12-26T06:39:57.508Z,1009.77
2017-12-26T06:40:57.437Z,1009.7
2017-12-26T06:41:57.484Z,1009.77
2017-12-26T06:42:57.492Z,1009.82
2017-12-26T06:43:57.352Z,1009.71
2017-12-26T06:44:57.447Z,1009.64
2017-12-26T06:45:57.337Z,1009.77
2017-12-26T06:46:57.330Z,1009.81
2017-12-26T06:47:57.411Z,1009.8
2017-12-26T06:48:57.487Z,1009.67
2017-12-26T06:49:57.515Z,1009.8
2017-12-26T06:50:57.493Z,1009.76
2017-12-26T06:51:57.536Z,1009.76
2017-12-26T06:52:57.432Z,1009.79
2017-12-26T06:53:57.435Z,1009.73
2017-12-26T06:54:57.562Z,1009.74
2017-12-26T06:55:57.388Z,1009.73
2017-12-26T06:56:57.450Z,1009.69
2017-12-26T06:57:57.483Z,1009.7
2017-12-26T06:58:57.382Z,1009.65
2017-12-26T06:59:57.754Z,1009.65
2017-12-26T07:00:57.445Z,1009.67
2017-12-26T07:01:57.491Z,1009.56
2017-12-26T07:02:57.441Z,1009.61
2017-12-26T07:03:57.482Z,1009.56
2017-12-26T07:04:57.488Z,1009.43
2017-12-26T07:05:57.427Z,1009.34
2017-12-26T07:06:57.421Z,1009.25
2017-12-26T07:07:57.495Z,1009.2
2017-12-26T07:08:57.512Z,1009.24
2017-12-26T07:09:57.453Z,1009.2
2017-12-26T07:10:57.511Z,1009.23
2017-12-26T07:11:57.473Z,1009.23
2017-12-26T07:12:57.398Z,1009.08
2017-12-26T07:13:57.504Z,1009.06
2017-12-26T07:14:57.486Z,1009.03
2017-12-26T07:15:57.396Z,1009.04
2017-12-26T07:16:57.442Z,1008.98
2017-12-26T07:17:57.450Z,1009.02
2017-12-26T07:18:57.439Z,1009.07
2017-12-26T07:19:57.488Z,1009.03
2017-12-26T07:20:57.545Z,1009.03
2017-12-26T07:21:57.461Z,1009.06
2017-12-26T07:22:57.837Z,1009.09
2017-12-26T07:23:57.537Z,1009.07
2017-12-26T07:24:57.542Z,1009.05
2017-12-26T07:25:57.544Z,1009.04
2017-12-26T07:26:57.384Z,1009.05
2017-12-26T07:27:57.430Z,1009
2017-12-26T07:28:57.553Z,1009.1
2017-12-26T07:29:57.457Z,1009.09
2017-12-26T07:30:57.492Z,1009.09
2017-12-26T07:31:57.418Z,1009.1
2017-12-26T07:32:57.400Z,1009.07
2017-12-26T07:33:57.405Z,1009.04
2017-12-26T07:34:57.509Z,1009.11
2017-12-26T07:35:57.449Z,1009.1
2017-12-26T07:36:57.559Z,1009.06
2017-12-26T07:37:57.518Z,1009.05
2017-12-26T07:38:57.438Z,1009.02
2017-12-26T07:39:57.466Z,1009.04
2017-12-26T07:40:57.472Z,1009.03
2017-12-26T07:41:57.491Z,1009.07
2017-12-26T07:42:57.508Z,1009.03
2017-12-26T07:43:57.436Z,1009.04
2017-12-26T07:44:57.404Z,1009.04
2017-12-26T07:45:57.557Z,1009.04
2017-12-26T07:46:57.563Z,1009.06
2017-12-26T07:49:57.820Z,1008.95
2017-12-26T07:50:57.513Z,1008.95
2017-12-26T07:51:57.476Z,1008.95
2017-12-26T07:52:57.954Z,1008.99
2017-12-26T07:53:57.597Z,1009.01
2017-12-26T07:54:57.594Z,1008.92
2017-12-26T07:55:57.719Z,1008.87
2017-12-26T07:56:57.716Z,1008.83
2017-12-26T07:57:57.733Z,1008.73
2017-12-26T07:58:57.467Z,1008.72
2017-12-26T07:59:57.612Z,1008.74
2017-12-26T08:00:57.543Z,1008.72
2017-12-26T08:01:57.622Z,1008.62
2017-12-26T08:02:57.565Z,1008.49
2017-12-26T08:03:57.638Z,1008.41
2017-12-26T08:04:57.599Z,1008.47
2017-12-26T08:05:57.371Z,1008.45
2017-12-26T08:06:57.542Z,1008.39
2017-12-26T08:07:57.691Z,1008.4
2017-12-26T08:08:57.664Z,1008.44
2017-12-26T08:09:57.509Z,1008.4
2017-12-26T08:10:57.684Z,1008.42
2017-12-26T08:11:57.720Z,1008.44
2017-12-26T08:12:57.774Z,1008.41
2017-12-26T08:13:57.620Z,1008.35
2017-12-26T08:14:57.566Z,1008.27
2017-12-26T08:15:57.549Z,1008.3
2017-12-26T08:16:57.830Z,1008.18
2017-12-26T08:17:57.503Z,1008.27
2017-12-26T08:18:57.586Z,1008.14
2017-12-26T08:19:57.514Z,1008.18
2017-12-26T08:20:57.668Z,1008.1
2017-12-26T08:21:57.542Z,1008.06
2017-12-26T08:22:57.603Z,1008.14
2017-12-26T08:23:57.540Z,1008.07
2017-12-26T08:24:57.608Z,1008.05
2017-12-26T08:25:57.610Z,1008.1
2017-12-26T08:26:57.544Z,1008.16
2017-12-26T08:27:57.513Z,1008.19
2017-12-26T08:28:57.600Z,1008.19
2017-12-26T08:29:57.508Z,1008.06
2017-12-26T08:30:57.620Z,1008.15
2017-12-26T08:31:57.597Z,1008.03
2017-12-26T08:32:57.597Z,1008.05
2017-12-26T08:33:57.532Z,1008.06
2017-12-26T08:34:57.611Z,1008.08
2017-12-26T08:35:57.873Z,1008.01
2017-12-26T08:36:57.560Z,1007.95
2017-12-26T08:37:57.739Z,1007.96
2017-12-26T08:38:57.660Z,1007.93
2017-12-26T08:39:57.669Z,1007.94
2017-12-26T08:40:57.671Z,1007.88
2017-12-26T08:41:57.779Z,1007.84
2017-12-26T08:42:57.612Z,1007.84
2017-12-26T08:43:57.593Z,1007.82
2017-12-26T08:44:57.518Z,1007.85
2017-12-26T08:45:57.636Z,1007.75
2017-12-26T08:46:57.593Z,1007.78
2017-12-26T08:47:57.699Z,1007.74
2017-12-26T08:48:57.680Z,1007.75
2017-12-26T08:49:57.544Z,1007.75
2017-12-26T08:50:57.572Z,1007.75
2017-12-26T08:51:57.596Z,1007.71
2017-12-26T08:52:57.676Z,1007.68
2017-12-26T08:53:57.686Z,1007.67
2017-12-26T08:54:57.629Z,1007.7
2017-12-26T08:55:57.790Z,1007.68
2017-12-26T08:56:57.565Z,1007.61
2017-12-26T08:57:57.703Z,1007.66
2017-12-26T08:58:57.644Z,1007.61
2017-12-26T08:59:57.674Z,1007.69
2017-12-26T09:00:57.621Z,1007.64
2017-12-26T09:01:57.658Z,1007.75
2017-12-26T09:02:57.451Z,1007.78
2017-12-26T09:03:57.672Z,1007.72
2017-12-26T09:04:57.645Z,1007.78
2017-12-26T09:05:57.643Z,1007.76
2017-12-26T09:06:57.577Z,1007.78
2017-12-26T09:07:57.622Z,1007.7
2017-12-26T09:08:57.681Z,1007.7
2017-12-26T09:09:57.647Z,1007.76
2017-12-26T09:10:57.625Z,1007.72
2017-12-26T09:11:57.640Z,1007.73
2017-12-26T09:12:57.646Z,1007.82
2017-12-26T09:13:57.756Z,1007.83
2017-12-26T09:14:57.635Z,1007.77
2017-12-26T09:15:57.648Z,1007.75
2017-12-26T09:16:57.654Z,1007.76
2017-12-26T09:17:57.701Z,1007.82
2017-12-26T09:18:57.746Z,1007.8
2017-12-26T09:19:57.682Z,1007.75
2017-12-26T09:20:57.775Z,1007.75
2017-12-26T09:21:57.648Z,1007.8
2017-12-26T09:22:57.617Z,1007.82
2017-12-26T09:23:57.767Z,1007.84
2017-12-26T09:24:57.800Z,1007.76
2017-12-26T09:28:06.222Z,1007.88
2017-12-26T09:28:57.650Z,1007.95
2017-12-26T09:29:57.737Z,1007.91
2017-12-26T09:30:57.568Z,1007.96
2017-12-26T09:31:57.658Z,1007.93
2017-12-26T09:32:57.678Z,1007.95
2017-12-26T09:33:57.753Z,1008.04
2017-12-26T09:34:57.656Z,1008.04
2017-12-26T09:35:57.711Z,1008.05
2017-12-26T09:36:57.665Z,1008.08
2017-12-26T09:37:57.767Z,1008.16
2017-12-26T09:38:57.583Z,1008.18
2017-12-26T09:39:57.679Z,1008.17
2017-12-26T09:40:57.607Z,1008.24
2017-12-26T09:44:04.220Z,1008.23
2017-12-26T09:44:57.834Z,1008.23
2017-12-26T09:45:57.752Z,1008.26
2017-12-26T09:46:57.616Z,1008.22
2017-12-26T09:47:57.859Z,1008.22
2017-12-26T09:48:57.876Z,1008.2
2017-12-26T09:49:57.757Z,1008.23
2017-12-26T09:50:58.154Z,1008.16
2017-12-26T09:51:57.810Z,1008.14
2017-12-26T09:52:57.804Z,1008.18
2017-12-26T09:53:57.780Z,1008.16
2017-12-26T09:54:57.700Z,1008.11
2017-12-26T09:55:57.738Z,1008.09
2017-12-26T09:56:57.744Z,1008.06
2017-12-26T09:57:57.788Z,1008
2017-12-26T09:58:57.770Z,1008.03
2017-12-26T09:59:57.904Z,1008.01
2017-12-26T10:00:57.613Z,1008
2017-12-26T10:01:57.860Z,1008.05
2017-12-26T10:02:57.873Z,1007.96
2017-12-26T10:03:57.836Z,1007.99
2017-12-26T10:04:57.833Z,1007.96
2017-12-26T10:05:57.849Z,1008
2017-12-26T10:06:57.658Z,1007.96
2017-12-26T10:07:57.803Z,1007.99
2017-12-26T10:08:57.729Z,1007.98
2017-12-26T10:09:57.721Z,1007.98
2017-12-26T10:10:57.715Z,1008
2017-12-26T10:11:57.700Z,1008.01
2017-12-26T10:12:57.928Z,1007.97
2017-12-26T10:13:57.730Z,1008.01
2017-12-26T10:14:57.813Z,1008
2017-12-26T10:15:57.630Z,1008.01
2017-12-26T10:16:57.741Z,1007.98
2017-12-26T10:17:58.053Z,1007.93
2017-12-26T10:18:57.670Z,1008.02
2017-12-26T10:19:57.792Z,1007.99
2017-12-26T10:20:57.666Z,1007.97
2017-12-26T10:21:57.916Z,1008
2017-12-26T10:22:57.793Z,1008.03
2017-12-26T10:23:57.829Z,1008.01
2017-12-26T10:24:57.716Z,1008.04
2017-12-26T10:25:57.842Z,1008.04
2017-12-26T10:26:57.868Z,1008.1
2017-12-26T10:27:57.857Z,1008.09
2017-12-26T10:28:57.792Z,1008.13
2017-12-26T10:29:58.306Z,1008.1
2017-12-26T10:30:58.014Z,1008.15
2017-12-26T10:31:57.969Z,1008.19
2017-12-26T10:32:57.959Z,1008.17
2017-12-26T10:33:57.758Z,1008.2
2017-12-26T10:34:57.762Z,1008.21
2017-12-26T10:35:57.948Z,1008.25
2017-12-26T10:36:57.773Z,1008.25
2017-12-26T10:37:57.857Z,1008.28
2017-12-26T10:38:57.843Z,1008.27
2017-12-26T10:39:57.814Z,1008.32
2017-12-26T10:40:58.205Z,1008.3
2017-12-26T10:41:58.137Z,1008.33
2017-12-26T10:42:57.999Z,1008.32
2017-12-26T10:43:57.948Z,1008.4
2017-12-26T10:44:57.875Z,1008.51
2017-12-26T10:45:57.948Z,1008.44
2017-12-26T10:46:58.025Z,1008.42
2017-12-26T10:47:59.685Z,1008.43
2017-12-26T10:48:57.889Z,1008.48
2017-12-26T10:49:58.238Z,1008.4
2017-12-26T10:50:58.015Z,1008.46
2017-12-26T10:51:58.072Z,1008.51
2017-12-26T10:52:58.088Z,1008.42
2017-12-26T10:53:57.840Z,1008.5
2017-12-26T10:54:58.153Z,1008.44
2017-12-26T10:55:57.956Z,1008.5
2017-12-26T10:56:57.917Z,1008.5
2017-12-26T10:57:57.828Z,1008.47
2017-12-26T10:58:58.054Z,1008.55
2017-12-26T10:59:58.143Z,1008.59
2017-12-26T11:00:58.308Z,1008.54
2017-12-26T11:01:57.959Z,1008.56
2017-12-26T11:02:57.900Z,1008.64
2017-12-26T11:03:57.819Z,1008.64
2017-12-26T11:04:57.901Z,1008.72
2017-12-26T11:05:57.954Z,1008.63
2017-12-26T11:06:57.855Z,1008.63
2017-12-26T11:07:58.092Z,1008.65
2017-12-26T11:08:57.930Z,1008.66
2017-12-26T11:09:58.294Z,1008.67
2017-12-26T11:10:58.144Z,1008.72
2017-12-26T11:11:58.817Z,1008.77
2017-12-26T11:12:57.847Z,1008.71
2017-12-26T11:13:57.907Z,1008.73
2017-12-26T11:14:58.197Z,1008.77
2017-12-26T11:15:57.892Z,1008.69
2017-12-26T11:16:57.939Z,1008.72
2017-12-26T11:17:57.915Z,1008.83
2017-12-26T11:18:57.919Z,1008.64
2017-12-26T11:19:58.093Z,1008.7
2017-12-26T11:20:57.909Z,1008.83
2017-12-26T11:21:57.937Z,1008.7
2017-12-26T11:22:58.002Z,1008.75
2017-12-26T11:23:57.864Z,1008.85
2017-12-26T11:24:58.105Z,1008.92
2017-12-26T11:25:58.051Z,1008.82
2017-12-26T11:26:58.591Z,1008.88
2017-12-26T11:27:58.587Z,1008.9
2017-12-26T11:28:57.732Z,1008.98
2017-12-26T11:29:58.607Z,1008.96
2017-12-26T11:30:58.188Z,1008.92
2017-12-26T11:31:58.059Z,1009.12
2017-12-26T11:32:57.953Z,1008.97
2017-12-26T11:33:57.874Z,1009.03
2017-12-26T11:34:57.849Z,1008.98
2017-12-26T11:35:57.981Z,1009.02
2017-12-26T11:36:57.807Z,1008.99
2017-12-26T11:38:10.052Z,1009.07
2017-12-26T11:38:57.791Z,1009.05
2017-12-26T11:39:57.930Z,1009.02
2017-12-26T11:40:58.024Z,1009.14
2017-12-26T11:41:57.970Z,1009.08
2017-12-26T11:42:57.875Z,1009.14
2017-12-26T11:43:57.913Z,1009.05
2017-12-26T11:44:58.029Z,1009.16
2017-12-26T11:45:57.929Z,1009.16
2017-12-26T11:46:57.935Z,1009.11
2017-12-26T11:47:57.885Z,1009.11
2017-12-26T11:48:57.878Z,1009.25
2017-12-26T11:49:57.854Z,1009.1
2017-12-26T11:50:58.021Z,1009.06
2017-12-26T11:51:57.873Z,1009.17
2017-12-26T11:52:57.832Z,1009.22
2017-12-26T11:53:57.910Z,1009.2
2017-12-26T11:54:57.864Z,1009.2
2017-12-26T11:55:58.775Z,1009.25
2017-12-26T11:56:58.354Z,1009.3
2017-12-26T11:57:57.937Z,1009.21
2017-12-26T11:58:59.130Z,1009.19
2017-12-26T11:59:57.908Z,1009.36
2017-12-26T12:00:57.905Z,1009.38
2017-12-26T12:01:57.875Z,1009.35
2017-12-26T12:02:57.808Z,1009.26
2017-12-26T12:03:59.315Z,1009.26
2017-12-26T12:04:57.996Z,1009.32
2017-12-26T12:05:58.299Z,1009.26
2017-12-26T12:06:57.896Z,1009.3
2017-12-26T12:07:58.104Z,1009.29
2017-12-26T12:08:58.912Z,1009.38
2017-12-26T12:09:57.963Z,1009.38
2017-12-26T12:10:58.381Z,1009.45
2017-12-26T12:11:57.896Z,1009.47
2017-12-26T12:13:06.908Z,1009.63
2017-12-26T12:13:57.890Z,1009.54
2017-12-26T12:14:57.979Z,1009.79
2017-12-26T12:15:58.196Z,1009.7
2017-12-26T12:16:57.850Z,1009.7
2017-12-26T12:17:58.275Z,1009.81